Terminal Aerodrome Forecast
Issued by NWS

Home | Current Version | Previous Version | Text Only | Print | Product List | Glossary On
Versions: 1 2 3 4 5 6 7 8 9 10 11 12 13
488
FTUS45 KTFX 182320
TAFLWT
TAF
KLWT 182320Z 1900/1924 26009KT P6SM SCT020 BKN110
     FM190600 29007KT P6SM SCT008 OVC015
      TEMPO 1906/1909 1SM -RASN BKN010
     FM191000 22006KT 3SM -RASN SCT003 OVC015 PROB30 1910/1915 2SM
      -SN BKN015=

USA.gov is the U.S. government's official web portal to all federal, state and local government web resources and services.